sensor_id;sensor_type;location;lat;lon;timestamp;temperature;humidity
23471;DHT22;11908;50.806;4.424;2023-09-19T00:01:06;16.60;99.90
23471;DHT22;11908;50.806;4.424;2023-09-19T00:03:35;16.50;99.90
23471;DHT22;11908;50.806;4.424;2023-09-19T00:06:04;16.50;99.90
23471;DHT22;11908;50.806;4.424;2023-09-19T00:08:31;16.30;99.90
23471;DHT22;11908;50.806;4.424;2023-09-19T00:10:58;16.30;99.90
23471;DHT22;11908;50.806;4.424;2023-09-19T00:13:32;16.20;99.90
23471;DHT22;11908;50.806;4.424;2023-09-19T00:15:57;16.30;99.90
23471;DHT22;11908;50.806;4.424;2023-09-19T00:18:25;16.30;99.90
23471;DHT22;11908;50.806;4.424;2023-09-19T00:20:58;16.20;99.90
23471;DHT22;11908;50.806;4.424;2023-09-19T00:23:24;16.10;99.90
23471;DHT22;11908;50.806;4.424;2023-09-19T00:25:50;16.20;99.90
23471;DHT22;11908;50.806;4.424;2023-09-19T00:28:16;16.10;99.90
23471;DHT22;11908;50.806;4.424;2023-09-19T00:30:44;16.10;99.90
23471;DHT22;11908;50.806;4.424;2023-09-19T00:33:11;16.10;99.90
23471;DHT22;11908;50.806;4.424;2023-09-19T00:35:50;16.20;99.90
23471;DHT22;11908;50.806;4.424;2023-09-19T00:38:16;16.10;99.90
23471;DHT22;11908;50.806;4.424;2023-09-19T00:40:47;16.10;99.90
23471;DHT22;11908;50.806;4.424;2023-09-19T00:43:13;16.00;99.90
23471;DHT22;11908;50.806;4.424;2023-09-19T00:45:43;16.10;99.90
23471;DHT22;11908;50.806;4.424;2023-09-19T00:48:09;16.10;99.90
23471;DHT22;11908;50.806;4.424;2023-09-19T00:50:35;16.00;99.90
23471;DHT22;11908;50.806;4.424;2023-09-19T00:53:02;16.10;99.90
23471;DHT22;11908;50.806;4.424;2023-09-19T00:55:35;16.10;99.90
23471;DHT22;11908;50.806;4.424;2023-09-19T00:58:03;16.10;99.90
23471;DHT22;11908;50.806;4.424;2023-09-19T01:00:28;16.10;99.90
23471;DHT22;11908;50.806;4.424;2023-09-19T01:02:54;16.10;99.90
23471;DHT22;11908;50.806;4.424;2023-09-19T01:05:20;16.10;99.90
23471;DHT22;11908;50.806;4.424;2023-09-19T01:07:46;16.10;99.90
23471;DHT22;11908;50.806;4.424;2023-09-19T01:10:17;16.10;99.90
23471;DHT22;11908;50.806;4.424;2023-09-19T01:13:11;16.10;99.90
23471;DHT22;11908;50.806;4.424;2023-09-19T01:18:36;15.90;99.90
23471;DHT22;11908;50.806;4.424;2023-09-19T01:21:23;15.90;99.90
23471;DHT22;11908;50.806;4.424;2023-09-19T01:24:07;15.80;99.90
23471;DHT22;11908;50.806;4.424;2023-09-19T01:29:37;15.80;99.90
23471;DHT22;11908;50.806;4.424;2023-09-19T01:32:05;15.90;99.90
23471;DHT22;11908;50.806;4.424;2023-09-19T01:34:48;15.70;99.90
23471;DHT22;11908;50.806;4.424;2023-09-19T01:37:15;15.70;99.90
23471;DHT22;11908;50.806;4.424;2023-09-19T01:40:11;15.70;99.90
23471;DHT22;11908;50.806;4.424;2023-09-19T01:42:55;15.60;99.90
23471;DHT22;11908;50.806;4.424;2023-09-19T01:48:19;15.70;99.90
23471;DHT22;11908;50.806;4.424;2023-09-19T01:50:58;15.80;99.90
23471;DHT22;11908;50.806;4.424;2023-09-19T01:53:27;15.80;99.90
23471;DHT22;11908;50.806;4.424;2023-09-19T01:55:57;15.90;99.90
23471;DHT22;11908;50.806;4.424;2023-09-19T02:01:05;15.70;99.90
23471;DHT22;11908;50.806;4.424;2023-09-19T02:03:34;15.70;99.90
23471;DHT22;11908;50.806;4.424;2023-09-19T02:06:00;15.80;99.90
23471;DHT22;11908;50.806;4.424;2023-09-19T02:08:26;15.90;99.90
23471;DHT22;11908;50.806;4.424;2023-09-19T02:10:52;15.90;99.90
23471;DHT22;11908;50.806;4.424;2023-09-19T02:13:22;16.00;99.90
23471;DHT22;11908;50.806;4.424;2023-09-19T02:15:51;15.90;99.90
23471;DHT22;11908;50.806;4.424;2023-09-19T02:18:16;15.90;99.90
23471;DHT22;11908;50.806;4.424;2023-09-19T02:20:42;15.90;99.90
23471;DHT22;11908;50.806;4.424;2023-09-19T02:23:09;15.80;99.90
23471;DHT22;11908;50.806;4.424;2023-09-19T02:25:35;15.90;99.90
23471;DHT22;11908;50.806;4.424;2023-09-19T02:28:01;15.70;99.90
23471;DHT22;11908;50.806;4.424;2023-09-19T02:30:28;15.70;99.90
23471;DHT22;11908;50.806;4.424;2023-09-19T02:32:54;15.70;99.90
23471;DHT22;11908;50.806;4.424;2023-09-19T02:35:20;15.70;99.90
23471;DHT22;11908;50.806;4.424;2023-09-19T02:37:48;15.70;99.90
23471;DHT22;11908;50.806;4.424;2023-09-19T02:40:15;15.80;99.90
23471;DHT22;11908;50.806;4.424;2023-09-19T02:42:53;15.80;99.90
23471;DHT22;11908;50.806;4.424;2023-09-19T02:45:20;15.80;99.90
23471;DHT22;11908;50.806;4.424;2023-09-19T02:47:46;15.80;99.90
23471;DHT22;11908;50.806;4.424;2023-09-19T02:50:12;15.90;99.90
23471;DHT22;11908;50.806;4.424;2023-09-19T02:52:40;15.90;99.90
23471;DHT22;11908;50.806;4.424;2023-09-19T02:55:08;15.90;99.90
23471;DHT22;11908;50.806;4.424;2023-09-19T02:57:35;15.90;99.90
23471;DHT22;11908;50.806;4.424;2023-09-19T03:00:03;15.90;99.90
23471;DHT22;11908;50.806;4.424;2023-09-19T03:02:30;15.80;99.90
23471;DHT22;11908;50.806;4.424;2023-09-19T03:04:58;15.80;99.90
23471;DHT22;11908;50.806;4.424;2023-09-19T03:07:26;15.70;99.90
23471;DHT22;11908;50.806;4.424;2023-09-19T03:09:51;15.80;99.90
23471;DHT22;11908;50.806;4.424;2023-09-19T03:12:18;15.70;99.90
23471;DHT22;11908;50.806;4.424;2023-09-19T03:14:44;15.70;99.90
23471;DHT22;11908;50.806;4.424;2023-09-19T03:17:09;15.80;99.90
23471;DHT22;11908;50.806;4.424;2023-09-19T03:19:35;15.80;99.90
23471;DHT22;11908;50.806;4.424;2023-09-19T03:22:03;15.80;99.90
23471;DHT22;11908;50.806;4.424;2023-09-19T03:24:28;15.90;99.90
23471;DHT22;11908;50.806;4.424;2023-09-19T03:26:54;15.80;99.90
23471;DHT22;11908;50.806;4.424;2023-09-19T03:29:20;15.80;99.90
23471;DHT22;11908;50.806;4.424;2023-09-19T03:31:46;15.80;99.90
23471;DHT22;11908;50.806;4.424;2023-09-19T03:34:11;15.90;99.90
23471;DHT22;11908;50.806;4.424;2023-09-19T03:36:37;16.00;99.90
23471;DHT22;11908;50.806;4.424;2023-09-19T03:39:03;16.10;99.90
23471;DHT22;11908;50.806;4.424;2023-09-19T03:41:31;16.10;99.90
23471;DHT22;11908;50.806;4.424;2023-09-19T03:43:57;16.10;99.90
23471;DHT22;11908;50.806;4.424;2023-09-19T03:46:22;16.10;99.90
23471;DHT22;11908;50.806;4.424;2023-09-19T03:48:48;16.00;99.90
23471;DHT22;11908;50.806;4.424;2023-09-19T03:51:13;15.90;99.90
23471;DHT22;11908;50.806;4.424;2023-09-19T03:53:39;15.90;99.90
23471;DHT22;11908;50.806;4.424;2023-09-19T03:56:05;15.80;99.90
23471;DHT22;11908;50.806;4.424;2023-09-19T03:58:30;15.80;99.90
23471;DHT22;11908;50.806;4.424;2023-09-19T04:00:56;15.80;99.90
23471;DHT22;11908;50.806;4.424;2023-09-19T04:03:23;15.90;99.90
23471;DHT22;11908;50.806;4.424;2023-09-19T04:05:50;15.80;99.90
23471;DHT22;11908;50.806;4.424;2023-09-19T04:08:16;15.70;99.90
23471;DHT22;11908;50.806;4.424;2023-09-19T04:10:44;15.60;99.90
23471;DHT22;11908;50.806;4.424;2023-09-19T04:13:11;15.60;99.90
23471;DHT22;11908;50.806;4.424;2023-09-19T04:15:37;15.40;99.90
23471;DHT22;11908;50.806;4.424;2023-09-19T04:18:03;15.40;99.90
23471;DHT22;11908;50.806;4.424;2023-09-19T04:20:29;15.30;99.90
23471;DHT22;11908;50.806;4.424;2023-09-19T04:22:54;15.30;99.90
23471;DHT22;11908;50.806;4.424;2023-09-19T04:25:20;15.40;99.90
23471;DHT22;11908;50.806;4.424;2023-09-19T04:27:46;15.40;99.90
23471;DHT22;11908;50.806;4.424;2023-09-19T04:30:12;15.40;99.90
23471;DHT22;11908;50.806;4.424;2023-09-19T04:32:41;15.40;99.90
23471;DHT22;11908;50.806;4.424;2023-09-19T04:35:07;15.40;99.90
23471;DHT22;11908;50.806;4.424;2023-09-19T04:37:40;15.30;99.90
23471;DHT22;11908;50.806;4.424;2023-09-19T04:40:10;15.30;99.90
23471;DHT22;11908;50.806;4.424;2023-09-19T04:42:45;15.20;99.90
23471;DHT22;11908;50.806;4.424;2023-09-19T04:45:11;15.20;99.90
23471;DHT22;11908;50.806;4.424;2023-09-19T04:47:38;15.10;99.90
23471;DHT22;11908;50.806;4.424;2023-09-19T04:50:08;15.10;99.90
23471;DHT22;11908;50.806;4.424;2023-09-19T04:52:42;15.20;99.90
23471;DHT22;11908;50.806;4.424;2023-09-19T04:55:17;15.20;99.90
23471;DHT22;11908;50.806;4.424;2023-09-19T04:57:48;15.20;99.90
23471;DHT22;11908;50.806;4.424;2023-09-19T05:00:19;15.20;99.90
23471;DHT22;11908;50.806;4.424;2023-09-19T05:02:54;15.20;99.90
23471;DHT22;11908;50.806;4.424;2023-09-19T05:05:20;15.10;99.90
23471;DHT22;11908;50.806;4.424;2023-09-19T05:07:47;15.10;99.90
23471;DHT22;11908;50.806;4.424;2023-09-19T05:10:13;15.10;99.90
23471;DHT22;11908;50.806;4.424;2023-09-19T05:12:39;15.10;99.90
23471;DHT22;11908;50.806;4.424;2023-09-19T05:15:06;15.10;99.90
23471;DHT22;11908;50.806;4.424;2023-09-19T05:17:33;15.10;99.90
23471;DHT22;11908;50.806;4.424;2023-09-19T05:19:59;15.00;99.90
23471;DHT22;11908;50.806;4.424;2023-09-19T05:22:31;15.00;99.90
23471;DHT22;11908;50.806;4.424;2023-09-19T05:24:58;14.90;99.90
23471;DHT22;11908;50.806;4.424;2023-09-19T05:27:24;14.90;99.90
23471;DHT22;11908;50.806;4.424;2023-09-19T05:29:49;15.00;99.90
23471;DHT22;11908;50.806;4.424;2023-09-19T05:32:18;15.00;99.90
23471;DHT22;11908;50.806;4.424;2023-09-19T05:34:45;15.00;99.90
23471;DHT22;11908;50.806;4.424;2023-09-19T05:37:11;15.00;99.90
23471;DHT22;11908;50.806;4.424;2023-09-19T05:39:36;15.00;99.90
23471;DHT22;11908;50.806;4.424;2023-09-19T05:42:03;15.00;99.90
23471;DHT22;11908;50.806;4.424;2023-09-19T05:44:29;15.00;99.90
23471;DHT22;11908;50.806;4.424;2023-09-19T05:46:54;15.00;99.90
23471;DHT22;11908;50.806;4.424;2023-09-19T05:49:22;15.00;99.90
23471;DHT22;11908;50.806;4.424;2023-09-19T05:51:47;15.10;99.90
23471;DHT22;11908;50.806;4.424;2023-09-19T05:54:13;15.20;99.90
23471;DHT22;11908;50.806;4.424;2023-09-19T05:56:39;15.30;99.90
23471;DHT22;11908;50.806;4.424;2023-09-19T05:59:04;15.30;99.90
23471;DHT22;11908;50.806;4.424;2023-09-19T06:01:31;15.40;99.90
23471;DHT22;11908;50.806;4.424;2023-09-19T06:03:58;15.40;99.90
23471;DHT22;11908;50.806;4.424;2023-09-19T06:06:25;15.40;99.90
23471;DHT22;11908;50.806;4.424;2023-09-19T06:08:51;15.50;99.90
23471;DHT22;11908;50.806;4.424;2023-09-19T06:11:17;15.40;99.90
23471;DHT22;11908;50.806;4.424;2023-09-19T06:13:45;15.50;99.90
23471;DHT22;11908;50.806;4.424;2023-09-19T06:16:12;15.60;99.90
23471;DHT22;11908;50.806;4.424;2023-09-19T06:18:38;15.50;99.90
23471;DHT22;11908;50.806;4.424;2023-09-19T06:21:04;15.50;99.90
23471;DHT22;11908;50.806;4.424;2023-09-19T06:23:33;15.50;99.90
23471;DHT22;11908;50.806;4.424;2023-09-19T06:25:59;15.40;99.90
23471;DHT22;11908;50.806;4.424;2023-09-19T06:28:25;15.50;99.90
23471;DHT22;11908;50.806;4.424;2023-09-19T06:30:56;15.60;99.90
23471;DHT22;11908;50.806;4.424;2023-09-19T06:33:22;15.80;99.90
23471;DHT22;11908;50.806;4.424;2023-09-19T06:35:48;15.90;99.90
23471;DHT22;11908;50.806;4.424;2023-09-19T06:38:14;16.10;99.90
23471;DHT22;11908;50.806;4.424;2023-09-19T06:40:41;16.00;99.90
23471;DHT22;11908;50.806;4.424;2023-09-19T06:43:10;16.00;99.90
23471;DHT22;11908;50.806;4.424;2023-09-19T06:45:36;16.00;99.90
23471;DHT22;11908;50.806;4.424;2023-09-19T06:48:02;16.00;99.90
23471;DHT22;11908;50.806;4.424;2023-09-19T06:50:28;16.10;99.90
23471;DHT22;11908;50.806;4.424;2023-09-19T06:52:56;16.20;99.90
23471;DHT22;11908;50.806;4.424;2023-09-19T06:55:25;16.20;99.90
23471;DHT22;11908;50.806;4.424;2023-09-19T06:57:53;16.20;99.90
23471;DHT22;11908;50.806;4.424;2023-09-19T07:00:22;16.30;99.90
23471;DHT22;11908;50.806;4.424;2023-09-19T07:03:01;16.40;99.90
23471;DHT22;11908;50.806;4.424;2023-09-19T07:05:32;16.40;99.90
23471;DHT22;11908;50.806;4.424;2023-09-19T07:08:01;16.40;99.90
23471;DHT22;11908;50.806;4.424;2023-09-19T07:10:27;16.40;99.90
23471;DHT22;11908;50.806;4.424;2023-09-19T07:13:04;16.60;99.90
23471;DHT22;11908;50.806;4.424;2023-09-19T07:15:33;16.60;99.90
23471;DHT22;11908;50.806;4.424;2023-09-19T07:18:01;16.60;99.90
23471;DHT22;11908;50.806;4.424;2023-09-19T07:20:27;16.70;99.90
23471;DHT22;11908;50.806;4.424;2023-09-19T07:22:54;16.50;99.90
23471;DHT22;11908;50.806;4.424;2023-09-19T07:25:25;16.60;99.90
23471;DHT22;11908;50.806;4.424;2023-09-19T07:27:51;16.70;99.90
23471;DHT22;11908;50.806;4.424;2023-09-19T07:30:16;16.90;99.90
23471;DHT22;11908;50.806;4.424;2023-09-19T07:32:42;16.80;99.90
23471;DHT22;11908;50.806;4.424;2023-09-19T07:35:08;16.70;99.90
23471;DHT22;11908;50.806;4.424;2023-09-19T07:37:34;16.80;99.90
23471;DHT22;11908;50.806;4.424;2023-09-19T07:40:04;17.00;99.90
23471;DHT22;11908;50.806;4.424;2023-09-19T07:42:35;17.20;99.90
23471;DHT22;11908;50.806;4.424;2023-09-19T07:45:02;17.40;99.90
23471;DHT22;11908;50.806;4.424;2023-09-19T07:47:28;17.50;99.90
23471;DHT22;11908;50.806;4.424;2023-09-19T07:49:55;17.70;99.90
23471;DHT22;11908;50.806;4.424;2023-09-19T07:52:21;17.80;99.90
23471;DHT22;11908;50.806;4.424;2023-09-19T07:54:48;17.60;99.90
23471;DHT22;11908;50.806;4.424;2023-09-19T07:57:15;17.50;99.90
23471;DHT22;11908;50.806;4.424;2023-09-19T07:59:41;17.80;99.90
23471;DHT22;11908;50.806;4.424;2023-09-19T08:02:07;18.10;99.90
23471;DHT22;11908;50.806;4.424;2023-09-19T08:04:35;18.10;99.90
23471;DHT22;11908;50.806;4.424;2023-09-19T08:07:01;18.30;99.90
23471;DHT22;11908;50.806;4.424;2023-09-19T08:09:29;18.40;99.90
23471;DHT22;11908;50.806;4.424;2023-09-19T08:11:59;18.40;99.90
23471;DHT22;11908;50.806;4.424;2023-09-19T08:14:28;18.60;99.90
23471;DHT22;11908;50.806;4.424;2023-09-19T08:16:57;18.60;99.90
23471;DHT22;11908;50.806;4.424;2023-09-19T08:19:25;18.60;99.90
23471;DHT22;11908;50.806;4.424;2023-09-19T08:21:55;18.30;99.90
23471;DHT22;11908;50.806;4.424;2023-09-19T08:24:24;18.80;99.90
23471;DHT22;11908;50.806;4.424;2023-09-19T08:26:52;19.30;99.90
23471;DHT22;11908;50.806;4.424;2023-09-19T08:29:20;19.50;99.90
23471;DHT22;11908;50.806;4.424;2023-09-19T08:31:45;19.70;99.90
23471;DHT22;11908;50.806;4.424;2023-09-19T08:34:15;19.90;99.90
23471;DHT22;11908;50.806;4.424;2023-09-19T08:36:41;20.20;99.90
23471;DHT22;11908;50.806;4.424;2023-09-19T08:39:08;20.50;99.90
23471;DHT22;11908;50.806;4.424;2023-09-19T08:41:34;21.30;99.90
23471;DHT22;11908;50.806;4.424;2023-09-19T08:44:00;21.60;99.90
23471;DHT22;11908;50.806;4.424;2023-09-19T08:46:30;21.40;99.90
23471;DHT22;11908;50.806;4.424;2023-09-19T08:49:12;21.70;99.90
23471;DHT22;11908;50.806;4.424;2023-09-19T08:51:43;21.90;99.90
23471;DHT22;11908;50.806;4.424;2023-09-19T08:54:28;21.80;99.90
23471;DHT22;11908;50.806;4.424;2023-09-19T08:56:59;21.80;99.90
23471;DHT22;11908;50.806;4.424;2023-09-19T08:59:28;21.10;99.90
23471;DHT22;11908;50.806;4.424;2023-09-19T09:01:56;21.50;99.90
23471;DHT22;11908;50.806;4.424;2023-09-19T09:04:22;21.20;99.90
23471;DHT22;11908;50.806;4.424;2023-09-19T09:06:50;21.00;99.90
23471;DHT22;11908;50.806;4.424;2023-09-19T09:09:19;21.20;99.90
23471;DHT22;11908;50.806;4.424;2023-09-19T09:11:45;21.30;99.90
23471;DHT22;11908;50.806;4.424;2023-09-19T09:14:13;21.60;99.90
23471;DHT22;11908;50.806;4.424;2023-09-19T09:16:39;22.40;99.90
23471;DHT22;11908;50.806;4.424;2023-09-19T09:19:05;22.70;99.90
23471;DHT22;11908;50.806;4.424;2023-09-19T09:21:31;22.50;99.90
23471;DHT22;11908;50.806;4.424;2023-09-19T09:24:30;23.00;99.90
23471;DHT22;11908;50.806;4.424;2023-09-19T09:26:57;22.50;99.90
23471;DHT22;11908;50.806;4.424;2023-09-19T09:34:51;22.00;99.90
23471;DHT22;11908;50.806;4.424;2023-09-19T09:37:18;21.90;99.90
23471;DHT22;11908;50.806;4.424;2023-09-19T09:39:58;21.40;99.90
23471;DHT22;11908;50.806;4.424;2023-09-19T09:42:43;21.50;99.90
23471;DHT22;11908;50.806;4.424;2023-09-19T09:45:19;21.90;99.90
23471;DHT22;11908;50.806;4.424;2023-09-19T09:47:54;21.10;99.90
23471;DHT22;11908;50.806;4.424;2023-09-19T09:50:36;21.30;99.90
23471;DHT22;11908;50.806;4.424;2023-09-19T09:53:29;21.30;99.90
23471;DHT22;11908;50.806;4.424;2023-09-19T09:56:07;21.00;99.90
23471;DHT22;11908;50.806;4.424;2023-09-19T09:58:49;21.10;99.90
23471;DHT22;11908;50.806;4.424;2023-09-19T10:01:15;20.80;99.90
23471;DHT22;11908;50.806;4.424;2023-09-19T10:03:42;20.90;99.90
23471;DHT22;11908;50.806;4.424;2023-09-19T10:06:16;21.00;99.90
23471;DHT22;11908;50.806;4.424;2023-09-19T10:09:08;21.10;99.90
23471;DHT22;11908;50.806;4.424;2023-09-19T10:12:03;21.30;99.90
23471;DHT22;11908;50.806;4.424;2023-09-19T10:14:33;21.30;99.90
23471;DHT22;11908;50.806;4.424;2023-09-19T10:17:03;21.30;99.90
23471;DHT22;11908;50.806;4.424;2023-09-19T10:19:36;21.40;99.90
23471;DHT22;11908;50.806;4.424;2023-09-19T10:22:03;21.20;99.90
23471;DHT22;11908;50.806;4.424;2023-09-19T10:24:30;21.40;99.90
23471;DHT22;11908;50.806;4.424;2023-09-19T10:26:59;22.30;99.90
23471;DHT22;11908;50.806;4.424;2023-09-19T10:29:28;22.20;99.90
23471;DHT22;11908;50.806;4.424;2023-09-19T10:31:58;22.60;99.90
23471;DHT22;11908;50.806;4.424;2023-09-19T10:34:25;23.00;99.90
23471;DHT22;11908;50.806;4.424;2023-09-19T10:36:52;23.10;99.90
23471;DHT22;11908;50.806;4.424;2023-09-19T10:39:19;24.00;99.90
23471;DHT22;11908;50.806;4.424;2023-09-19T10:41:51;23.90;99.90
23471;DHT22;11908;50.806;4.424;2023-09-19T10:44:23;24.00;99.90
23471;DHT22;11908;50.806;4.424;2023-09-19T10:46:51;24.30;99.90
23471;DHT22;11908;50.806;4.424;2023-09-19T10:49:19;23.70;99.90
23471;DHT22;11908;50.806;4.424;2023-09-19T10:51:45;23.60;99.90
23471;DHT22;11908;50.806;4.424;2023-09-19T10:54:16;23.70;99.90
23471;DHT22;11908;50.806;4.424;2023-09-19T10:56:46;23.50;99.90
23471;DHT22;11908;50.806;4.424;2023-09-19T10:59:18;23.60;99.90
23471;DHT22;11908;50.806;4.424;2023-09-19T11:01:54;23.90;99.90
23471;DHT22;11908;50.806;4.424;2023-09-19T11:04:33;24.70;99.90
23471;DHT22;11908;50.806;4.424;2023-09-19T11:07:03;24.70;99.90
23471;DHT22;11908;50.806;4.424;2023-09-19T11:09:46;24.80;99.90
23471;DHT22;11908;50.806;4.424;2023-09-19T11:15:02;25.00;99.90
23471;DHT22;11908;50.806;4.424;2023-09-19T11:17:40;24.10;99.90
23471;DHT22;11908;50.806;4.424;2023-09-19T11:30:52;25.10;99.90
23471;DHT22;11908;50.806;4.424;2023-09-19T11:33:27;24.70;99.90
23471;DHT22;11908;50.806;4.424;2023-09-19T11:36:18;24.10;99.90
23471;DHT22;11908;50.806;4.424;2023-09-19T11:39:01;24.80;99.90
23471;DHT22;11908;50.806;4.424;2023-09-19T11:41:39;24.70;99.90
23471;DHT22;11908;50.806;4.424;2023-09-19T11:46:33;24.30;99.90
23471;DHT22;11908;50.806;4.424;2023-09-19T11:49:06;23.70;99.90
23471;DHT22;11908;50.806;4.424;2023-09-19T11:51:42;23.60;99.90
23471;DHT22;11908;50.806;4.424;2023-09-19T11:54:13;23.40;99.90
23471;DHT22;11908;50.806;4.424;2023-09-19T11:56:44;23.30;99.90
23471;DHT22;11908;50.806;4.424;2023-09-19T11:59:11;22.70;99.90
23471;DHT22;11908;50.806;4.424;2023-09-19T12:01:40;22.50;99.90
23471;DHT22;11908;50.806;4.424;2023-09-19T12:04:11;22.40;99.90
23471;DHT22;11908;50.806;4.424;2023-09-19T12:06:37;22.30;99.90
23471;DHT22;11908;50.806;4.424;2023-09-19T12:09:04;22.40;99.90
23471;DHT22;11908;50.806;4.424;2023-09-19T12:11:41;22.70;99.90
23471;DHT22;11908;50.806;4.424;2023-09-19T12:14:09;22.90;99.90
23471;DHT22;11908;50.806;4.424;2023-09-19T12:16:35;22.90;99.90
23471;DHT22;11908;50.806;4.424;2023-09-19T12:19:21;22.90;99.90
23471;DHT22;11908;50.806;4.424;2023-09-19T12:22:00;22.20;99.90
23471;DHT22;11908;50.806;4.424;2023-09-19T12:24:30;21.70;99.90
23471;DHT22;11908;50.806;4.424;2023-09-19T12:27:06;21.60;99.90
23471;DHT22;11908;50.806;4.424;2023-09-19T12:29:52;21.30;99.90
23471;DHT22;11908;50.806;4.424;2023-09-19T12:32:41;21.20;99.90
23471;DHT22;11908;50.806;4.424;2023-09-19T12:35:08;21.30;99.90
23471;DHT22;11908;50.806;4.424;2023-09-19T12:37:37;21.60;99.90
23471;DHT22;11908;50.806;4.424;2023-09-19T12:40:09;21.60;99.90
23471;DHT22;11908;50.806;4.424;2023-09-19T12:42:48;21.60;99.90
23471;DHT22;11908;50.806;4.424;2023-09-19T12:45:15;21.50;99.90
23471;DHT22;11908;50.806;4.424;2023-09-19T12:51:08;21.80;99.90
23471;DHT22;11908;50.806;4.424;2023-09-19T12:56:13;22.00;99.90
23471;DHT22;11908;50.806;4.424;2023-09-19T12:58:53;22.10;99.90
23471;DHT22;11908;50.806;4.424;2023-09-19T13:01:19;22.30;99.90
23471;DHT22;11908;50.806;4.424;2023-09-19T13:03:45;22.10;99.90
23471;DHT22;11908;50.806;4.424;2023-09-19T13:06:11;22.00;99.90
23471;DHT22;11908;50.806;4.424;2023-09-19T13:08:39;21.80;99.90
23471;DHT22;11908;50.806;4.424;2023-09-19T13:11:14;21.70;99.90
23471;DHT22;11908;50.806;4.424;2023-09-19T13:16:26;21.80;99.90
23471;DHT22;11908;50.806;4.424;2023-09-19T13:18:54;21.60;99.90
23471;DHT22;11908;50.806;4.424;2023-09-19T13:21:48;21.60;99.90
23471;DHT22;11908;50.806;4.424;2023-09-19T13:24:23;21.40;99.90
23471;DHT22;11908;50.806;4.424;2023-09-19T13:26:55;21.50;99.90
23471;DHT22;11908;50.806;4.424;2023-09-19T13:29:22;21.50;99.90
23471;DHT22;11908;50.806;4.424;2023-09-19T13:34:13;21.50;99.90
23471;DHT22;11908;50.806;4.424;2023-09-19T13:36:41;21.70;99.90
23471;DHT22;11908;50.806;4.424;2023-09-19T13:39:08;21.80;99.90
23471;DHT22;11908;50.806;4.424;2023-09-19T13:41:35;22.00;99.90
23471;DHT22;11908;50.806;4.424;2023-09-19T13:44:02;22.30;99.90
23471;DHT22;11908;50.806;4.424;2023-09-19T13:46:28;22.40;99.90
23471;DHT22;11908;50.806;4.424;2023-09-19T13:48:56;22.30;99.90
23471;DHT22;11908;50.806;4.424;2023-09-19T13:51:26;21.90;99.90
23471;DHT22;11908;50.806;4.424;2023-09-19T13:53:51;21.90;99.90
23471;DHT22;11908;50.806;4.424;2023-09-19T13:56:17;21.90;99.90
23471;DHT22;11908;50.806;4.424;2023-09-19T13:58:43;21.70;99.90
23471;DHT22;11908;50.806;4.424;2023-09-19T14:01:08;21.80;99.90
23471;DHT22;11908;50.806;4.424;2023-09-19T14:03:38;21.90;99.90
23471;DHT22;11908;50.806;4.424;2023-09-19T14:06:04;21.90;99.90
23471;DHT22;11908;50.806;4.424;2023-09-19T14:08:30;21.90;99.90
23471;DHT22;11908;50.806;4.424;2023-09-19T14:10:56;21.60;99.90
23471;DHT22;11908;50.806;4.424;2023-09-19T14:13:21;21.50;99.90
23471;DHT22;11908;50.806;4.424;2023-09-19T14:15:47;21.20;99.90
23471;DHT22;11908;50.806;4.424;2023-09-19T14:18:13;21.20;99.90
23471;DHT22;11908;50.806;4.424;2023-09-19T14:20:39;21.40;99.90
23471;DHT22;11908;50.806;4.424;2023-09-19T14:23:07;21.30;99.90
23471;DHT22;11908;50.806;4.424;2023-09-19T14:25:36;21.50;99.90
23471;DHT22;11908;50.806;4.424;2023-09-19T14:28:04;21.60;99.90
23471;DHT22;11908;50.806;4.424;2023-09-19T14:30:30;21.60;99.90
23471;DHT22;11908;50.806;4.424;2023-09-19T14:32:57;21.50;99.90
23471;DHT22;11908;50.806;4.424;2023-09-19T14:35:23;21.80;99.90
23471;DHT22;11908;50.806;4.424;2023-09-19T14:37:49;22.00;99.90
23471;DHT22;11908;50.806;4.424;2023-09-19T14:40:14;22.00;99.90
23471;DHT22;11908;50.806;4.424;2023-09-19T14:42:43;22.00;99.90
23471;DHT22;11908;50.806;4.424;2023-09-19T14:45:11;21.90;99.90
23471;DHT22;11908;50.806;4.424;2023-09-19T14:47:37;21.80;99.90
23471;DHT22;11908;50.806;4.424;2023-09-19T14:50:03;21.80;99.90
23471;DHT22;11908;50.806;4.424;2023-09-19T14:52:35;21.50;99.90
23471;DHT22;11908;50.806;4.424;2023-09-19T14:55:01;21.20;99.90
23471;DHT22;11908;50.806;4.424;2023-09-19T14:57:27;21.30;99.90
23471;DHT22;11908;50.806;4.424;2023-09-19T14:59:53;21.20;99.90
23471;DHT22;11908;50.806;4.424;2023-09-19T15:02:19;21.20;99.90
23471;DHT22;11908;50.806;4.424;2023-09-19T15:04:46;21.30;99.90
23471;DHT22;11908;50.806;4.424;2023-09-19T15:07:16;21.50;99.90
23471;DHT22;11908;50.806;4.424;2023-09-19T15:09:43;21.50;99.90
23471;DHT22;11908;50.806;4.424;2023-09-19T15:12:09;21.50;99.90
23471;DHT22;11908;50.806;4.424;2023-09-19T15:14:36;21.40;99.90
23471;DHT22;11908;50.806;4.424;2023-09-19T15:17:02;21.10;99.90
23471;DHT22;11908;50.806;4.424;2023-09-19T15:19:30;20.90;99.90
23471;DHT22;11908;50.806;4.424;2023-09-19T15:21:56;20.90;99.90
23471;DHT22;11908;50.806;4.424;2023-09-19T15:24:22;20.70;99.90
23471;DHT22;11908;50.806;4.424;2023-09-19T15:26:48;20.60;99.90
23471;DHT22;11908;50.806;4.424;2023-09-19T15:29:14;20.50;99.90
23471;DHT22;11908;50.806;4.424;2023-09-19T15:31:40;20.50;99.90
23471;DHT22;11908;50.806;4.424;2023-09-19T15:34:05;20.60;99.90
23471;DHT22;11908;50.806;4.424;2023-09-19T15:36:33;20.50;99.90
23471;DHT22;11908;50.806;4.424;2023-09-19T15:41:32;20.40;99.90
23471;DHT22;11908;50.806;4.424;2023-09-19T15:43:58;20.30;99.90
23471;DHT22;11908;50.806;4.424;2023-09-19T15:46:27;20.20;99.90
23471;DHT22;11908;50.806;4.424;2023-09-19T15:48:55;20.30;99.90
23471;DHT22;11908;50.806;4.424;2023-09-19T15:51:21;20.40;99.90
23471;DHT22;11908;50.806;4.424;2023-09-19T15:53:49;20.30;99.90
23471;DHT22;11908;50.806;4.424;2023-09-19T15:56:16;20.40;99.90
23471;DHT22;11908;50.806;4.424;2023-09-19T15:58:44;20.40;99.90
23471;DHT22;11908;50.806;4.424;2023-09-19T16:01:10;20.30;99.90
23471;DHT22;11908;50.806;4.424;2023-09-19T16:03:37;20.30;99.90
23471;DHT22;11908;50.806;4.424;2023-09-19T16:06:11;20.20;99.90
23471;DHT22;11908;50.806;4.424;2023-09-19T16:08:40;20.20;99.90
23471;DHT22;11908;50.806;4.424;2023-09-19T16:11:05;20.40;99.90
23471;DHT22;11908;50.806;4.424;2023-09-19T16:13:31;20.30;99.90
23471;DHT22;11908;50.806;4.424;2023-09-19T16:15:57;20.30;99.90
23471;DHT22;11908;50.806;4.424;2023-09-19T16:18:23;20.20;99.90
23471;DHT22;11908;50.806;4.424;2023-09-19T16:20:49;20.30;99.90
23471;DHT22;11908;50.806;4.424;2023-09-19T16:23:15;20.20;99.90
23471;DHT22;11908;50.806;4.424;2023-09-19T16:25:41;20.10;99.90
23471;DHT22;11908;50.806;4.424;2023-09-19T16:28:07;20.20;99.90